Time;durP1;ratioP1;P1;durP2;ratioP2;P2;SDS_P1;SDS_P2;PMS_P1;PMS_P2;Temp;Humidity;BMP_temperature;BMP_pressure;BME280_temperature;BME280_humidity;BME280_pressure;Samples;Min_cycle;Max_cycle;Signal;HPM_P1;HPM_P2
2023/10/13 00:01:04;;;;;;;6.20;5.70;;;17.60;99.90;;;;;;5001544;28;20293;-75
2023/10/13 00:03:32;;;;;;;5.80;5.40;;;17.60;99.90;;;;;;5005170;28;20221;-75
2023/10/13 00:06:02;;;;;;;5.87;5.27;;;17.60;99.90;;;;;;5007918;28;20286;-75
2023/10/13 00:08:30;;;;;;;5.10;4.70;;;17.60;99.90;;;;;;5006945;28;20198;-77
2023/10/13 00:11:00;;;;;;;4.73;4.43;;;17.60;99.90;;;;;;5007904;28;20200;-75
2023/10/13 00:13:28;;;;;;;5.70;5.30;;;17.60;99.90;;;;;;5005026;28;20201;-75
2023/10/13 00:15:58;;;;;;;5.70;5.30;;;17.50;99.90;;;;;;5005078;28;20212;-76
2023/10/13 00:18:26;;;;;;;7.37;6.77;;;17.50;99.90;;;;;;5003788;28;20637;-76
2023/10/13 00:20:56;;;;;;;5.80;5.40;;;17.50;99.90;;;;;;5004137;28;20205;-75
2023/10/13 00:23:26;;;;;;;6.10;5.60;;;17.40;99.90;;;;;;5005698;28;20217;-76
2023/10/13 00:26:03;;;;;;;5.70;5.17;;;17.40;99.90;;;;;;5007817;28;20278;-75
2023/10/13 00:28:43;;;;;;;4.47;4.17;;;17.40;99.90;;;;;;5003577;28;20263;-75
2023/10/13 00:31:11;;;;;;;8.07;7.47;;;17.30;99.90;;;;;;5004716;28;20206;-76
2023/10/13 00:33:38;;;;;;;6.00;5.50;;;17.30;99.90;;;;;;5005576;28;20193;-77
2023/10/13 00:36:08;;;;;;;6.47;5.87;;;17.20;99.90;;;;;;5006650;28;20228;-77
2023/10/13 00:38:37;;;;;;;8.93;8.23;;;17.20;99.90;;;;;;5007557;28;20191;-77
2023/10/13 00:41:13;;;;;;;6.00;5.50;;;17.20;99.90;;;;;;5004937;28;20586;-75
2023/10/13 00:43:45;;;;;;;5.97;5.47;;;17.10;99.90;;;;;;5004176;28;20303;-76
2023/10/13 00:46:13;;;;;;;6.80;6.20;;;17.00;99.90;;;;;;5011632;28;20299;-77
2023/10/13 00:48:43;;;;;;;7.07;6.47;;;16.90;99.90;;;;;;5004137;28;20232;-77
2023/10/13 00:51:32;;;;;;;7.03;6.33;;;16.80;99.90;;;;;;5021533;28;20215;-75
2023/10/13 00:53:59;;;;;;;6.73;6.13;;;16.70;99.90;;;;;;5010235;28;20228;-76
2023/10/13 00:56:27;;;;;;;7.13;6.53;;;16.50;99.90;;;;;;5016748;28;20661;-76
2023/10/13 00:58:55;;;;;;;7.53;6.80;;;16.40;99.90;;;;;;5007786;28;20225;-76
2023/10/13 01:01:22;;;;;;;7.20;6.50;;;16.30;99.90;;;;;;5016371;28;20196;-75
2023/10/13 01:03:49;;;;;;;6.43;5.93;;;16.30;99.90;;;;;;5010703;28;20723;-77
2023/10/13 01:06:21;;;;;;;7.30;6.67;;;16.20;99.90;;;;;;5025958;28;20213;-76
2023/10/13 01:08:50;;;;;;;7.13;6.47;;;16.20;99.90;;;;;;5005948;28;20200;-77
2023/10/13 01:11:23;;;;;;;7.17;6.40;;;16.10;99.90;;;;;;5010998;28;20188;-76
2023/10/13 01:13:51;;;;;;;7.67;6.67;;;16.10;99.90;;;;;;5011105;28;20373;-75
2023/10/13 01:16:21;;;;;;;7.20;6.60;;;16.00;99.90;;;;;;5020253;28;20224;-75
2023/10/13 01:18:47;;;;;;;7.30;6.60;;;16.00;99.90;;;;;;5011646;28;20204;-75
2023/10/13 01:21:19;;;;;;;7.23;6.63;;;15.90;99.90;;;;;;5007137;28;20550;-76
2023/10/13 01:23:47;;;;;;;7.13;6.43;;;15.90;99.90;;;;;;5010273;28;20291;-75
2023/10/13 01:26:21;;;;;;;6.97;6.27;;;15.80;99.90;;;;;;5008355;28;20211;-75
2023/10/13 01:28:48;;;;;;;7.90;7.20;;;15.80;99.90;;;;;;5009288;28;20255;-76
2023/10/13 01:31:24;;;;;;;8.07;7.27;;;15.80;99.90;;;;;;5015830;28;20613;-76
2023/10/13 01:33:54;;;;;;;7.43;6.70;;;15.70;99.90;;;;;;5004844;28;20199;-75
2023/10/13 01:36:24;;;;;;;7.77;7.03;;;15.70;99.90;;;;;;5009047;28;20213;-77
2023/10/13 01:38:51;;;;;;;7.73;7.13;;;15.60;99.90;;;;;;5008268;28;20436;-77
2023/10/13 01:41:19;;;;;;;7.97;7.27;;;15.60;99.90;;;;;;5009639;28;20192;-76
2023/10/13 01:43:45;;;;;;;7.73;7.10;;;15.50;99.90;;;;;;5011135;28;20583;-77
2023/10/13 01:46:14;;;;;;;7.77;7.13;;;15.40;99.90;;;;;;5004543;28;20217;-75
2023/10/13 01:48:41;;;;;;;8.77;7.87;;;15.40;99.90;;;;;;5007477;28;20209;-76
2023/10/13 01:51:09;;;;;;;10.10;7.80;;;15.30;99.90;;;;;;5009016;28;20238;-76
2023/10/13 01:53:36;;;;;;;7.87;7.20;;;15.30;99.90;;;;;;5009073;28;20222;-77
2023/10/13 01:56:10;;;;;;;8.40;7.60;;;15.20;99.90;;;;;;5012590;28;20247;-75
2023/10/13 01:58:37;;;;;;;7.93;7.20;;;15.10;99.90;;;;;;5005876;28;20207;-76
2023/10/13 02:01:07;;;;;;;6.77;4.93;;;15.00;99.90;;;;;;5019079;28;20227;-76
2023/10/13 02:03:33;;;;;;;8.90;8.10;;;15.00;99.90;;;;;;5006688;28;20222;-77
2023/10/13 02:06:04;;;;;;;8.43;7.73;;;14.90;99.90;;;;;;5004025;28;20224;-76
2023/10/13 02:08:30;;;;;;;8.70;7.90;;;14.80;99.90;;;;;;5008559;28;20195;-76
2023/10/13 02:11:01;;;;;;;8.67;7.87;;;14.70;99.90;;;;;;5018563;28;20213;-75
2023/10/13 02:13:29;;;;;;;8.87;7.93;;;14.70;99.90;;;;;;5017364;28;20229;-76
2023/10/13 02:16:02;;;;;;;8.23;7.53;;;14.60;99.90;;;;;;5008195;28;20230;-77
2023/10/13 02:18:28;;;;;;;8.13;7.43;;;14.50;99.90;;;;;;5009556;28;20196;-76
2023/10/13 02:20:55;;;;;;;10.03;7.77;;;14.50;99.90;;;;;;5008591;28;20278;-75
2023/10/13 02:23:22;;;;;;;8.63;7.73;;;14.40;99.90;;;;;;5008608;28;20224;-76
2023/10/13 02:25:53;;;;;;;9.37;8.00;;;14.40;99.90;;;;;;5005692;28;20201;-76
2023/10/13 02:28:21;;;;;;;8.87;8.07;;;14.40;99.90;;;;;;5009372;28;20682;-74
2023/10/13 02:30:50;;;;;;;7.33;5.53;;;14.30;99.90;;;;;;5004586;28;20203;-76
2023/10/13 02:33:21;;;;;;;6.87;5.37;;;14.30;99.90;;;;;;5005395;28;20268;-79
2023/10/13 02:35:53;;;;;;;6.17;5.57;;;14.30;99.90;;;;;;5016853;28;20204;-77
2023/10/13 02:38:30;;;;;;;8.30;5.90;;;14.30;99.90;;;;;;5008491;28;20197;-76
2023/10/13 02:40:56;;;;;;;7.87;5.70;;;14.20;99.90;;;;;;5009463;28;20202;-80
2023/10/13 02:43:23;;;;;;;7.23;5.83;;;14.20;99.90;;;;;;5007272;28;20214;-76
2023/10/13 02:45:58;;;;;;;8.20;7.30;;;14.20;99.90;;;;;;5003534;28;20251;-77
2023/10/13 02:48:30;;;;;;;6.53;5.53;;;14.20;99.90;;;;;;5011739;28;20202;-77
2023/10/13 02:51:01;;;;;;;7.03;5.80;;;14.20;99.90;;;;;;5000515;28;20236;-76
2023/10/13 02:53:29;;;;;;;5.80;5.20;;;14.20;99.90;;;;;;5016513;28;20185;-77
2023/10/13 02:55:56;;;;;;;7.67;5.10;;;14.20;99.90;;;;;;5009233;28;20197;-78
2023/10/13 02:58:37;;;;;;;6.93;4.97;;;14.30;99.90;;;;;;5012220;28;20266;-78
2023/10/13 03:01:16;;;;;;;6.90;5.20;;;14.40;99.90;;;;;;5016480;28;20243;-79
2023/10/13 03:03:53;;;;;;;7.17;5.50;;;14.50;99.90;;;;;;5015751;28;20893;-77
2023/10/13 03:06:23;;;;;;;7.87;4.93;;;14.60;99.90;;;;;;5009535;28;20215;-77
2023/10/13 03:08:50;;;;;;;7.17;4.20;;;14.70;99.90;;;;;;5014549;28;20248;-79
2023/10/13 03:11:21;;;;;;;8.10;5.10;;;14.80;99.90;;;;;;5016889;28;20202;-79
2023/10/13 03:13:51;;;;;;;5.73;4.43;;;14.80;99.90;;;;;;5016327;28;20187;-77
2023/10/13 03:16:19;;;;;;;8.93;5.50;;;14.90;99.90;;;;;;5016826;28;20221;-76
2023/10/13 03:18:55;;;;;;;5.90;5.07;;;15.00;99.90;;;;;;5016221;28;20273;-77
2023/10/13 03:21:29;;;;;;;6.07;4.70;;;15.00;99.90;;;;;;5017652;28;20221;-76
2023/10/13 03:24:03;;;;;;;7.77;7.07;;;15.00;99.90;;;;;;5015569;28;20225;-77
2023/10/13 03:26:36;;;;;;;8.40;5.40;;;15.00;99.90;;;;;;4998627;28;20219;-80
2023/10/13 03:29:07;;;;;;;6.93;4.63;;;15.10;99.90;;;;;;5005174;28;20233;-79
2023/10/13 03:31:37;;;;;;;7.77;6.40;;;15.10;99.90;;;;;;5014874;28;20210;-77
2023/10/13 03:34:09;;;;;;;5.57;3.90;;;15.10;99.90;;;;;;5012145;28;20232;-81
2023/10/13 03:39:17;;;;;;;7.83;7.10;;;15.10;99.90;;;;;;5003579;28;20884;-75
2023/10/13 03:41:45;;;;;;;8.20;7.40;;;15.10;99.90;;;;;;5008800;28;20708;-75
2023/10/13 03:44:18;;;;;;;7.60;6.83;;;15.10;99.90;;;;;;5007826;28;20282;-76
2023/10/13 03:46:47;;;;;;;7.83;7.13;;;15.10;99.90;;;;;;5004976;28;20240;-75
2023/10/13 03:49:16;;;;;;;7.40;6.70;;;15.10;99.90;;;;;;4994993;28;20231;-75
2023/10/13 03:51:43;;;;;;;8.60;7.00;;;15.10;99.90;;;;;;4997416;28;20282;-75
2023/10/13 03:54:10;;;;;;;7.70;7.00;;;15.10;99.90;;;;;;5004871;28;20739;-75
2023/10/13 03:56:40;;;;;;;8.40;7.60;;;15.10;99.90;;;;;;4998357;28;20793;-75
2023/10/13 03:59:10;;;;;;;8.03;7.20;;;15.10;99.90;;;;;;5004724;28;20699;-75
2023/10/13 04:01:45;;;;;;;8.40;7.60;;;15.20;99.90;;;;;;4998185;28;20208;-75
2023/10/13 04:04:15;;;;;;;7.80;7.00;;;15.20;99.90;;;;;;5002653;28;20207;-75
2023/10/13 04:06:51;;;;;;;8.30;7.50;;;15.20;99.90;;;;;;5014309;28;20228;-76
2023/10/13 04:15:18;;;;;;;6.90;6.30;;;15.10;99.90;;;;;;4979150;28;20234;-75
2023/10/13 04:17:46;;;;;;;8.70;7.57;;;15.10;99.90;;;;;;4986490;28;20249;-75
2023/10/13 04:20:26;;;;;;;7.57;6.80;;;15.10;99.90;;;;;;5001521;28;20229;-75
2023/10/13 04:25:52;;;;;;;8.00;7.30;;;15.10;99.90;;;;;;5016266;28;20301;-75
2023/10/13 04:28:34;;;;;;;8.53;7.57;;;15.10;99.90;;;;;;5011784;28;20204;-75
2023/10/13 04:31:11;;;;;;;7.60;6.87;;;15.10;99.90;;;;;;5006474;28;20668;-75
2023/10/13 04:33:51;;;;;;;7.93;7.13;;;15.10;99.90;;;;;;5003558;28;20247;-76
2023/10/13 04:36:36;;;;;;;7.47;6.77;;;15.10;99.90;;;;;;5009583;28;20757;-76
2023/10/13 04:39:09;;;;;;;6.90;6.20;;;15.00;99.90;;;;;;4999933;28;20278;-75
2023/10/13 04:41:39;;;;;;;6.60;6.10;;;15.00;99.90;;;;;;5007497;28;20196;-76
2023/10/13 04:44:23;;;;;;;8.03;7.27;;;15.00;99.90;;;;;;4997753;28;20233;-76
2023/10/13 04:47:08;;;;;;;8.43;7.63;;;15.00;99.90;;;;;;4998408;28;20309;-76
2023/10/13 04:49:49;;;;;;;9.27;8.47;;;14.80;99.90;;;;;;4995838;28;20208;-75
2023/10/13 04:52:38;;;;;;;7.13;5.17;;;14.60;99.90;;;;;;5010317;28;20260;-77
2023/10/13 04:55:33;;;;;;;5.83;4.70;;;14.50;99.90;;;;;;5015051;28;20191;-78
2023/10/13 05:01:16;;;;;;;5.53;4.60;;;14.30;99.90;;;;;;5009784;28;20285;-79
2023/10/13 05:04:08;;;;;;;8.43;5.10;;;14.20;99.90;;;;;;5007590;28;20750;-77
2023/10/13 05:45:54;;;;;;;8.87;7.10;;;13.30;99.90;;;;;;5007510;28;20587;-78
2023/10/13 05:48:34;;;;;;;9.73;7.53;;;13.30;99.90;;;;;;5013669;28;20196;-78
2023/10/13 06:29:33;;;;;;;8.47;7.50;;;13.50;99.90;;;;;;5018876;28;20193;-75
2023/10/13 06:32:01;;;;;;;12.73;7.53;;;13.60;99.90;;;;;;5005251;28;20237;-79
2023/10/13 06:34:37;;;;;;;11.10;9.30;;;13.70;99.90;;;;;;5002066;28;20190;-81
2023/10/13 06:37:21;;;;;;;8.07;5.67;;;13.90;99.90;;;;;;5000825;28;20224;-79
2023/10/13 06:39:48;;;;;;;9.43;5.87;;;14.10;99.90;;;;;;5012446;28;20272;-79
2023/10/13 06:42:16;;;;;;;7.30;5.77;;;14.30;99.90;;;;;;5000358;28;20190;-79
2023/10/13 06:44:45;;;;;;;8.70;6.73;;;14.40;99.90;;;;;;5012190;28;20250;-80
2023/10/13 06:47:13;;;;;;;9.33;8.53;;;14.50;99.90;;;;;;5010982;28;20265;-80
2023/10/13 06:49:43;;;;;;;6.90;5.40;;;14.60;99.90;;;;;;5016126;28;20785;-80
2023/10/13 06:52:10;;;;;;;7.23;5.40;;;14.90;99.90;;;;;;5012004;28;20199;-78
2023/10/13 06:54:39;;;;;;;9.87;5.23;;;15.10;99.90;;;;;;5003836;28;20195;-80
2023/10/13 06:57:06;;;;;;;9.60;7.13;;;15.30;99.90;;;;;;5013227;28;20253;-79
2023/10/13 06:59:40;;;;;;;7.70;5.43;;;15.40;99.90;;;;;;5002097;28;20286;-80
2023/10/13 07:02:09;;;;;;;9.57;8.53;;;15.60;99.90;;;;;;5009501;28;20196;-80
2023/10/13 07:04:39;;;;;;;10.00;5.50;;;15.70;99.90;;;;;;5015255;28;20215;-80
2023/10/13 07:07:10;;;;;;;10.17;9.07;;;15.70;99.90;;;;;;5013904;28;20216;-80
2023/10/13 07:09:49;;;;;;;7.43;5.50;;;15.70;99.90;;;;;;5007748;28;20659;-80
2023/10/13 07:12:22;;;;;;;7.43;5.10;;;15.70;99.90;;;;;;5005919;28;21861;-81
2023/10/13 07:14:52;;;;;;;10.37;4.87;;;15.70;99.90;;;;;;5011153;28;20201;-78
2023/10/13 07:17:24;;;;;;;9.50;8.70;;;15.70;99.90;;;;;;5008296;28;20261;-80
2023/10/13 07:19:59;;;;;;;6.63;5.13;;;15.80;99.90;;;;;;5008999;28;20196;-78
2023/10/13 07:22:27;;;;;;;8.27;7.47;;;16.00;99.90;;;;;;5004942;28;20689;-81
2023/10/13 07:24:57;;;;;;;9.10;8.20;;;16.20;99.90;;;;;;5012457;28;20300;-81
2023/10/13 07:27:24;;;;;;;9.03;7.73;;;16.60;99.90;;;;;;5003753;28;20213;-80
2023/10/13 07:29:56;;;;;;;9.73;4.90;;;17.00;99.90;;;;;;5011722;28;20250;-81
2023/10/13 07:32:33;;;;;;;9.90;9.00;;;17.50;99.90;;;;;;5010568;28;20202;-80
2023/10/13 07:35:06;;;;;;;9.50;7.77;;;18.00;99.90;;;;;;5011678;28;20203;-82
2023/10/13 07:37:34;;;;;;;8.37;7.67;;;18.50;99.90;;;;;;5009590;28;20213;-82
2023/10/13 07:40:00;;;;;;;8.97;8.07;;;19.00;99.90;;;;;;5010617;28;20406;-82
2023/10/13 07:42:31;;;;;;;8.20;7.43;;;19.40;99.90;;;;;;5011678;28;20214;-82
2023/10/13 07:44:59;;;;;;;10.60;7.03;;;19.80;99.90;;;;;;5007312;28;20648;-81
2023/10/13 07:47:28;;;;;;;8.03;6.70;;;20.30;99.90;;;;;;5022620;28;20601;-81
2023/10/13 07:49:56;;;;;;;8.40;7.30;;;20.60;99.90;;;;;;5011752;28;20208;-81
2023/10/13 07:52:36;;;;;;;8.63;7.70;;;20.90;99.90;;;;;;5010032;28;20227;-82
2023/10/13 07:55:11;;;;;;;8.80;7.13;;;21.30;99.90;;;;;;5010342;28;20239;-82
2023/10/13 07:57:53;;;;;;;9.53;5.97;;;21.50;99.90;;;;;;5008362;28;20742;-82
2023/10/13 08:00:29;;;;;;;9.43;4.40;;;21.60;99.90;;;;;;5009801;28;20214;-82
2023/10/13 08:03:09;;;;;;;10.47;7.90;;;21.80;99.90;;;;;;5007333;28;20258;-83
2023/10/13 08:05:55;;;;;;;9.30;4.87;;;22.20;99.90;;;;;;5010652;28;20647;-81
2023/10/13 08:08:25;;;;;;;10.33;4.50;;;22.30;99.90;;;;;;5007385;28;20208;-82
2023/10/13 08:10:55;;;;;;;10.37;7.63;;;22.50;99.90;;;;;;4998631;28;20216;-77
2023/10/13 08:13:23;;;;;;;9.60;7.90;;;22.60;99.90;;;;;;5010650;28;20211;-77
2023/10/13 08:15:52;;;;;;;8.33;7.53;;;22.90;99.90;;;;;;5003368;28;20197;-77
2023/10/13 08:18:30;;;;;;;9.77;8.20;;;23.20;99.90;;;;;;5000699;28;20200;-77
2023/10/13 08:21:02;;;;;;;9.00;7.07;;;23.20;99.90;;;;;;4997835;28;20208;-81
2023/10/13 08:32:14;;;;;;;14.13;7.63;;;23.40;99.90;;;;;;5105726;28;20197;-78
2023/10/13 08:34:59;;;;;;;12.33;7.63;;;23.60;99.90;;;;;;5102539;28;20209;-77
2023/10/13 08:37:29;;;;;;;8.77;7.17;;;23.70;99.90;;;;;;5092681;28;20214;-77
2023/10/13 08:42:52;;;;;;;9.35;4.32;;;23.90;99.90;;;;;;5083193;28;20911;-78
2023/10/13 08:45:53;;;;;;;8.30;7.50;;;24.00;99.90;;;;;;5086834;28;20438;-79
2023/10/13 08:48:12;;;;;;;8.80;6.83;;;24.20;99.90;;;;;;5088070;28;20221;-78
2023/10/13 08:50:48;;;;;;;8.17;7.37;;;24.30;99.90;;;;;;5088943;28;20232;-79
2023/10/13 08:53:26;;;;;;;8.73;7.30;;;24.40;99.90;;;;;;5087159;28;20196;-77
2023/10/13 08:56:04;;;;;;;8.55;7.63;;;24.50;99.90;;;;;;5086425;28;20854;-78
2023/10/13 09:01:34;;;;;;;10.73;5.57;;;24.70;99.90;;;;;;5088957;28;20251;-81
2023/10/13 09:04:20;;;;;;;11.17;6.67;;;24.90;99.90;;;;;;5085420;28;20390;-80
2023/10/13 09:07:00;;;;;;;7.67;4.10;;;25.10;99.90;;;;;;5087642;28;20221;-78
2023/10/13 09:09:26;;;;;;;7.77;4.67;;;25.30;99.90;;;;;;5088872;28;20275;-80
2023/10/13 09:12:07;;;;;;;11.53;7.37;;;25.40;99.90;;;;;;5085223;28;20643;-81
2023/10/13 09:14:36;;;;;;;8.83;4.63;;;25.50;99.90;;;;;;5087803;28;20189;-79
2023/10/13 09:17:11;;;;;;;10.27;4.57;;;25.40;99.90;;;;;;5087171;28;20243;-79
2023/10/13 09:19:48;;;;;;;9.93;4.47;;;25.60;99.90;;;;;;5089140;28;20194;-80
2023/10/13 09:22:26;;;;;;;8.07;4.17;;;25.70;99.90;;;;;;5086969;28;20197;-79
2023/10/13 09:24:58;;;;;;;6.20;4.10;;;25.80;99.90;;;;;;5087663;28;20230;-79
2023/10/13 09:27:26;;;;;;;6.60;4.60;;;25.80;99.90;;;;;;5088512;28;20221;-79
2023/10/13 09:30:09;;;;;;;10.80;6.77;;;25.80;99.90;;;;;;5088427;28;20183;-80
2023/10/13 09:32:46;;;;;;;7.00;4.00;;;25.80;99.90;;;;;;5088845;28;20201;-81
2023/10/13 09:35:18;;;;;;;10.77;4.47;;;25.80;99.90;;;;;;5086939;28;20676;-80
2023/10/13 09:37:46;;;;;;;7.37;4.40;;;25.70;99.90;;;;;;5113932;28;20221;-79
2023/10/13 09:40:34;;;;;;;9.67;4.73;;;25.80;99.90;;;;;;5074893;28;20220;-79
2023/10/13 09:43:05;;;;;;;7.53;5.27;;;25.80;99.90;;;;;;5076909;28;20198;-80
2023/10/13 09:45:36;;;;;;;10.33;7.77;;;25.80;99.90;;;;;;5072181;28;20662;-78
2023/10/13 09:48:16;;;;;;;5.90;3.73;;;25.80;99.90;;;;;;5069442;28;20246;-80
2023/10/13 09:50:45;;;;;;;7.67;3.77;;;25.90;99.90;;;;;;5068073;28;20202;-81
2023/10/13 09:53:14;;;;;;;5.37;3.87;;;26.00;99.90;;;;;;5073796;28;20190;-83
2023/10/13 09:55:44;;;;;;;6.67;5.10;;;26.00;99.90;;;;;;5066605;28;20183;-78
2023/10/13 09:58:13;;;;;;;7.13;4.40;;;26.00;99.90;;;;;;5071819;28;20237;-80
2023/10/13 10:00:49;;;;;;;5.60;3.53;;;26.00;99.90;;;;;;5073905;28;20195;-78
2023/10/13 10:06:13;;;;;;;6.23;4.27;;;25.90;99.90;;;;;;5072483;28;20275;-77
2023/10/13 10:08:48;;;;;;;5.33;3.50;;;26.00;99.90;;;;;;5066090;28;20199;-75
2023/10/13 10:11:56;;;;;;;6.43;5.73;;;26.00;99.90;;;;;;5074982;28;20269;-78
2023/10/13 10:14:37;;;;;;;8.00;6.67;;;25.90;99.90;;;;;;5071716;28;20595;-79
2023/10/13 10:17:09;;;;;;;6.07;5.33;;;26.00;99.90;;;;;;5072981;28;20221;-80
2023/10/13 10:19:48;;;;;;;6.40;5.80;;;26.00;99.90;;;;;;5073978;28;20597;-79
2023/10/13 10:22:30;;;;;;;6.20;5.53;;;25.90;99.60;;;;;;5073616;28;20214;-77
2023/10/13 10:24:59;;;;;;;7.30;4.97;;;26.00;99.60;;;;;;5071468;28;20639;-78
2023/10/13 10:27:26;;;;;;;6.93;4.93;;;26.00;98.50;;;;;;5072797;28;20254;-77
2023/10/13 10:29:56;;;;;;;5.70;3.33;;;26.00;98.20;;;;;;5073044;28;20912;-77
2023/10/13 10:32:36;;;;;;;6.10;3.77;;;26.10;98.60;;;;;;5070885;28;20203;-79
2023/10/13 10:35:09;;;;;;;4.87;3.20;;;26.20;97.20;;;;;;5072510;28;20252;-78
2023/10/13 10:37:37;;;;;;;5.97;2.97;;;26.20;96.00;;;;;;5067131;28;20284;-79
2023/10/13 10:40:08;;;;;;;6.93;3.37;;;26.20;95.60;;;;;;5064038;28;20248;-77
2023/10/13 10:42:35;;;;;;;4.88;3.25;;;26.20;95.50;;;;;;5059675;28;20572;-79
2023/10/13 10:45:09;;;;;;;5.00;3.10;;;26.20;94.30;;;;;;5071916;28;20429;-79
2023/10/13 10:47:38;;;;;;;3.47;3.03;;;26.30;94.60;;;;;;5066400;28;20210;-79
2023/10/13 10:50:19;;;;;;;7.37;6.60;;;26.30;94.40;;;;;;5073917;28;20202;-78
2023/10/13 10:52:46;;;;;;;7.00;6.40;;;26.30;94.30;;;;;;5072465;28;20569;-77
2023/10/13 10:55:19;;;;;;;6.70;6.10;;;26.30;94.20;;;;;;5071541;28;20209;-79
2023/10/13 10:57:48;;;;;;;8.23;6.40;;;26.30;94.00;;;;;;5070719;28;20210;-78
2023/10/13 11:00:26;;;;;;;7.20;6.57;;;26.40;94.00;;;;;;5074750;28;20204;-77
2023/10/13 11:02:56;;;;;;;7.13;6.50;;;26.30;94.10;;;;;;5073696;28;20669;-78
2023/10/13 11:05:32;;;;;;;7.60;6.17;;;26.20;94.00;;;;;;5073333;28;20248;-77
2023/10/13 11:07:59;;;;;;;9.20;7.03;;;26.20;93.60;;;;;;5073376;28;20300;-78
2023/10/13 11:10:27;;;;;;;7.17;6.30;;;26.10;93.70;;;;;;5073409;28;20198;-75
2023/10/13 11:12:56;;;;;;;6.57;5.90;;;26.00;93.50;;;;;;5072681;28;20200;-76
2023/10/13 11:15:23;;;;;;;6.90;6.20;;;26.10;93.80;;;;;;5072298;28;20209;-76
2023/10/13 11:17:54;;;;;;;6.97;6.37;;;26.10;93.80;;;;;;5072683;28;20218;-76
2023/10/13 11:20:33;;;;;;;7.73;6.97;;;26.10;93.70;;;;;;5059572;28;20210;-76
2023/10/13 11:23:04;;;;;;;8.50;6.53;;;26.10;93.50;;;;;;5072733;28;20277;-77
2023/10/13 11:25:35;;;;;;;9.23;6.77;;;26.10;93.30;;;;;;5071278;28;20289;-77
2023/10/13 11:28:17;;;;;;;7.43;6.80;;;26.20;92.80;;;;;;5071839;28;20230;-76
2023/10/13 11:30:49;;;;;;;7.50;6.80;;;26.30;93.20;;;;;;5071637;28;20199;-78
2023/10/13 11:33:20;;;;;;;7.60;6.80;;;26.40;93.00;;;;;;5072878;28;20233;-76
2023/10/13 11:35:55;;;;;;;8.10;7.00;;;26.50;93.00;;;;;;5072670;28;20201;-78
2023/10/13 11:38:27;;;;;;;7.10;6.50;;;26.50;93.20;;;;;;5071592;28;20194;-77
2023/10/13 11:41:15;;;;;;;8.27;6.70;;;26.50;93.00;;;;;;5072826;28;20198;-78
2023/10/13 11:44:05;;;;;;;7.00;6.03;;;26.60;92.50;;;;;;5071817;28;20214;-77
2023/10/13 11:46:56;;;;;;;7.50;6.77;;;26.50;92.50;;;;;;5069842;28;20218;-78
2023/10/13 11:52:19;;;;;;;7.43;6.70;;;26.50;92.70;;;;;;5071572;28;20665;-78
2023/10/13 11:54:47;;;;;;;8.63;7.20;;;26.50;92.50;;;;;;5071467;28;20194;-78
2023/10/13 11:57:16;;;;;;;8.20;6.97;;;26.40;92.70;;;;;;5070062;28;20230;-79
2023/10/13 11:59:53;;;;;;;7.00;6.40;;;26.40;92.20;;;;;;5070040;28;20229;-77
2023/10/13 12:05:12;;;;;;;7.27;6.23;;;26.30;92.50;;;;;;5067518;28;20186;-79
2023/10/13 12:10:49;;;;;;;7.10;6.40;;;26.20;92.70;;;;;;5069964;28;20293;-78
2023/10/13 12:13:17;;;;;;;8.30;6.20;;;26.30;93.30;;;;;;5072394;28;20205;-76
2023/10/13 12:15:52;;;;;;;7.40;6.47;;;26.20;93.30;;;;;;5070597;28;20208;-77
2023/10/13 12:18:20;;;;;;;7.73;6.67;;;26.10;93.20;;;;;;5067822;28;20198;-80
2023/10/13 12:20:46;;;;;;;7.07;6.37;;;26.10;93.20;;;;;;5086048;28;20240;-78
2023/10/13 12:23:17;;;;;;;7.53;6.73;;;26.10;93.00;;;;;;5072476;28;20194;-77
2023/10/13 12:25:54;;;;;;;7.40;6.80;;;26.20;93.00;;;;;;5071544;28;20199;-77
2023/10/13 12:28:25;;;;;;;7.60;6.73;;;26.20;92.80;;;;;;5069670;28;20221;-79
2023/10/13 12:30:52;;;;;;;6.70;6.10;;;26.20;93.60;;;;;;5069690;28;20195;-78
2023/10/13 12:33:25;;;;;;;7.40;6.70;;;26.20;93.00;;;;;;5070933;28;20285;-77
2023/10/13 12:50:08;;;;;;;7.93;7.23;;;26.30;92.90;;;;;;5070234;28;20225;-78
2023/10/13 12:52:36;;;;;;;11.10;7.40;;;26.30;93.00;;;;;;5068602;28;20252;-78
2023/10/13 12:55:07;;;;;;;7.97;7.20;;;26.30;92.70;;;;;;5064182;28;20223;-79
2023/10/13 12:57:42;;;;;;;6.90;6.40;;;26.30;92.90;;;;;;5066766;28;20216;-79
2023/10/13 13:00:21;;;;;;;6.90;6.40;;;26.30;92.80;;;;;;5096806;28;20198;-78
2023/10/13 13:02:50;;;;;;;9.07;6.93;;;26.30;92.90;;;;;;5069527;28;20649;-78
2023/10/13 13:05:21;;;;;;;7.57;6.77;;;26.30;92.80;;;;;;5071227;28;20202;-79
2023/10/13 13:07:52;;;;;;;7.57;6.53;;;26.30;92.90;;;;;;5067215;28;20253;-78
2023/10/13 13:10:20;;;;;;;7.07;6.53;;;26.30;92.90;;;;;;5069014;28;20673;-78
2023/10/13 13:12:48;;;;;;;7.30;6.60;;;26.30;92.80;;;;;;5070988;28;20194;-77
2023/10/13 13:15:15;;;;;;;7.63;6.50;;;26.30;92.80;;;;;;5074477;28;20198;-77
2023/10/13 13:17:42;;;;;;;6.40;5.90;;;26.40;93.00;;;;;;5073629;28;20295;-78
2023/10/13 13:20:25;;;;;;;7.00;6.37;;;26.30;93.30;;;;;;5073042;28;20688;-78
2023/10/13 13:22:54;;;;;;;8.33;7.10;;;26.30;92.50;;;;;;5072939;28;20194;-80
2023/10/13 13:25:25;;;;;;;7.87;6.40;;;26.40;92.90;;;;;;5075767;28;20590;-78
2023/10/13 13:27:53;;;;;;;7.00;6.40;;;26.30;92.60;;;;;;5077297;28;20230;-79
2023/10/13 13:30:22;;;;;;;8.63;7.07;;;26.40;92.50;;;;;;5069628;28;20241;-78
2023/10/13 13:32:50;;;;;;;7.57;6.87;;;26.40;92.30;;;;;;5066700;28;20214;-78
2023/10/13 13:35:18;;;;;;;7.40;6.80;;;26.40;92.40;;;;;;5072798;28;20251;-77
2023/10/13 13:37:45;;;;;;;8.13;7.13;;;26.50;92.20;;;;;;5072086;28;20717;-79
2023/10/13 13:40:15;;;;;;;7.50;6.80;;;26.40;92.30;;;;;;5070603;28;20194;-79
2023/10/13 13:42:44;;;;;;;7.90;6.90;;;26.50;92.20;;;;;;5075323;28;20206;-81
2023/10/13 13:45:27;;;;;;;6.63;6.07;;;26.40;91.90;;;;;;5073092;28;20194;-77
2023/10/13 13:47:54;;;;;;;7.07;6.40;;;26.40;91.40;;;;;;5072887;28;20300;-78
2023/10/13 13:50:26;;;;;;;8.27;7.00;;;26.40;91.90;;;;;;5071976;28;20243;-78
2023/10/13 13:52:55;;;;;;;7.33;6.60;;;26.40;91.60;;;;;;5075245;28;20695;-78
2023/10/13 13:55:23;;;;;;;7.60;7.00;;;26.40;91.50;;;;;;5074418;28;20252;-78
2023/10/13 13:57:51;;;;;;;7.67;6.97;;;26.30;91.10;;;;;;5072899;28;20210;-79
2023/10/13 14:00:23;;;;;;;7.73;6.80;;;26.40;91.40;;;;;;5074161;28;20205;-78
2023/10/13 14:02:50;;;;;;;10.40;6.93;;;26.30;91.40;;;;;;5074358;28;20194;-78
2023/10/13 14:05:17;;;;;;;6.60;6.10;;;26.40;91.80;;;;;;5073074;28;20627;-77
2023/10/13 14:07:49;;;;;;;6.57;6.00;;;26.40;92.00;;;;;;5072642;28;20221;-78
2023/10/13 14:10:31;;;;;;;6.47;5.90;;;26.30;91.70;;;;;;5073988;28;20765;-78
2023/10/13 14:13:06;;;;;;;7.60;6.63;;;26.30;91.60;;;;;;5073910;28;20197;-78
2023/10/13 14:15:43;;;;;;;7.13;6.47;;;26.30;91.60;;;;;;5073966;28;20292;-79
2023/10/13 14:18:14;;;;;;;7.30;6.67;;;26.20;90.80;;;;;;5075293;28;20734;-77
2023/10/13 14:20:42;;;;;;;7.30;6.70;;;26.20;91.90;;;;;;5078534;28;20201;-76
2023/10/13 14:23:11;;;;;;;5.27;4.67;;;26.10;91.30;;;;;;5077925;28;20249;-76
2023/10/13 14:25:44;;;;;;;4.53;3.30;;;26.10;92.30;;;;;;5074915;28;20199;-76
2023/10/13 14:28:11;;;;;;;4.30;2.97;;;26.10;91.60;;;;;;5090242;22;20635;-79
2023/10/13 14:30:40;;;;;;;6.03;4.93;;;26.00;93.10;;;;;;5072684;28;20254;-78
2023/10/13 14:33:10;;;;;;;4.87;3.13;;;25.90;91.80;;;;;;5057911;28;20203;-79
2023/10/13 14:35:38;;;;;;;3.93;3.07;;;25.80;91.40;;;;;;5041210;28;20207;-79
2023/10/13 14:38:05;;;;;;;4.17;3.33;;;25.80;91.60;;;;;;5064203;28;20241;-79
2023/10/13 14:40:32;;;;;;;8.17;7.40;;;25.70;91.30;;;;;;5061219;28;20202;-79
2023/10/13 14:42:58;;;;;;;5.17;4.60;;;25.70;90.90;;;;;;5058011;28;20990;-79
2023/10/13 14:45:27;;;;;;;4.47;3.43;;;25.60;92.50;;;;;;5065846;28;20190;-81
2023/10/13 14:54:58;;;;;;;7.40;6.80;;;25.60;90.20;;;;;;4969855;28;20284;-80
2023/10/13 14:57:28;;;;;;;3.23;2.93;;;25.60;90.20;;;;;;5049352;28;20227;-79
2023/10/13 15:00:13;;;;;;;3.40;3.10;;;25.50;90.30;;;;;;5055518;28;20203;-79
2023/10/13 15:02:42;;;;;;;4.37;2.80;;;25.50;90.20;;;;;;5039973;28;20199;-81
2023/10/13 15:05:16;;;;;;;4.53;3.20;;;25.50;88.60;;;;;;5053441;28;20199;-81
2023/10/13 15:07:45;;;;;;;3.20;2.90;;;25.50;89.60;;;;;;5037378;28;20242;-80
2023/10/13 15:10:15;;;;;;;4.40;4.00;;;25.40;88.30;;;;;;5030643;28;20247;-75
2023/10/13 15:12:44;;;;;;;3.97;3.57;;;25.40;88.60;;;;;;5045241;28;20199;-76
2023/10/13 15:15:15;;;;;;;4.00;3.60;;;25.40;88.40;;;;;;5050000;28;20601;-76
2023/10/13 15:17:43;;;;;;;4.07;3.03;;;25.30;88.00;;;;;;5032502;28;20219;-76
2023/10/13 15:20:15;;;;;;;4.60;3.70;;;25.30;87.50;;;;;;5049692;28;20195;-75
2023/10/13 15:22:43;;;;;;;4.83;3.90;;;25.20;87.70;;;;;;5049213;28;20639;-76
2023/10/13 15:25:17;;;;;;;4.10;3.40;;;25.20;88.10;;;;;;5049629;28;20211;-75
2023/10/13 15:27:55;;;;;;;3.00;2.73;;;25.10;87.90;;;;;;5049533;28;20698;-75
2023/10/13 15:30:23;;;;;;;7.00;6.50;;;25.10;87.90;;;;;;5030130;28;20265;-75